Time;durP1;ratioP1;P1;durP2;ratioP2;P2;SDS_P1;SDS_P2;PMS_P1;PMS_P2;Temp;Humidity;BMP_temperature;BMP_pressure;BME280_temperature;BME280_humidity;BME280_pressure;Samples;Min_cycle;Max_cycle;Signal;HPM_P1;HPM_P2
2022/04/23 00:01:48;;;;;;;1.52;0.20;;;;;;;;;;4179563;28;20057;-33
2022/04/23 00:03:49;;;;;;;0.20;0.20;;;;;;;;;;4179869;28;20103;-34
2022/04/23 00:05:51;;;;;;;0.35;0.20;;;;;;;;;;4177810;28;20445;-34
2022/04/23 00:07:53;;;;;;;0.10;0.10;;;;;;;;;;4179142;28;20420;-34
2022/04/23 00:09:54;;;;;;;0.20;0.20;;;;;;;;;;4179283;28;20060;-34
2022/04/23 00:11:57;;;;;;;0.25;0.15;;;;;;;;;;4170237;28;20507;-34
2022/04/23 00:13:58;;;;;;;1.35;0.20;;;;;;;;;;4164944;28;20053;-34
2022/04/23 00:16:00;;;;;;;0.52;0.43;;;;;;;;;;4163148;28;20057;-34
2022/04/23 00:18:02;;;;;;;0.25;0.20;;;;;;;;;;4165166;28;20057;-34
2022/04/23 00:20:05;;;;;;;0.30;0.10;;;;;;;;;;4164485;28;20558;-33
2022/04/23 00:22:06;;;;;;;0.57;0.20;;;;;;;;;;4164997;28;20049;-34
2022/04/23 00:24:07;;;;;;;0.10;0.10;;;;;;;;;;4171647;28;20052;-34
2022/04/23 00:26:08;;;;;;;0.10;0.10;;;;;;;;;;4181208;28;20057;-33
2022/04/23 00:28:10;;;;;;;0.10;0.10;;;;;;;;;;4181240;28;20061;-33
2022/04/23 00:30:11;;;;;;;0.20;0.20;;;;;;;;;;4180658;28;20049;-33
2022/04/23 00:32:13;;;;;;;0.20;0.20;;;;;;;;;;4181163;28;20107;-34
2022/04/23 00:34:14;;;;;;;0.88;0.15;;;;;;;;;;4180878;28;20103;-34
2022/04/23 00:36:15;;;;;;;0.10;0.10;;;;;;;;;;4181051;28;20492;-34
2022/04/23 00:38:17;;;;;;;0.47;0.20;;;;;;;;;;4181142;28;20102;-34
2022/04/23 00:40:21;;;;;;;0.10;0.10;;;;;;;;;;4181140;28;20057;-33
2022/04/23 00:42:22;;;;;;;0.10;0.10;;;;;;;;;;4180977;28;20044;-34
2022/04/23 00:44:23;;;;;;;0.47;0.20;;;;;;;;;;4180427;28;20126;-34
2022/04/23 00:46:24;;;;;;;0.22;0.20;;;;;;;;;;4180856;28;20492;-33
2022/04/23 00:48:26;;;;;;;0.52;0.20;;;;;;;;;;4180706;28;20051;-34
2022/04/23 00:50:27;;;;;;;0.30;0.10;;;;;;;;;;4179334;28;20568;-34
2022/04/23 00:52:28;;;;;;;0.45;0.20;;;;;;;;;;4179592;28;20053;-34
2022/04/23 00:54:30;;;;;;;0.30;0.30;;;;;;;;;;4180552;28;20404;-34
2022/04/23 00:56:31;;;;;;;0.10;0.10;;;;;;;;;;4179651;28;20053;-34
2022/04/23 00:58:33;;;;;;;0.55;0.20;;;;;;;;;;4180950;28;20495;-34
2022/04/23 01:00:37;;;;;;;0.00;0.00;;;;;;;;;;4179933;28;20064;-34
2022/04/23 01:02:39;;;;;;;0.20;0.10;;;;;;;;;;4180575;28;20447;-33
2022/04/23 01:04:40;;;;;;;0.20;0.20;;;;;;;;;;4180739;28;20308;-34
2022/04/23 01:06:43;;;;;;;0.10;0.10;;;;;;;;;;4180609;28;20072;-34
2022/04/23 01:08:44;;;;;;;0.20;0.10;;;;;;;;;;4180577;28;20393;-34
2022/04/23 01:10:45;;;;;;;0.55;0.10;;;;;;;;;;4180387;28;20459;-34
2022/04/23 01:12:46;;;;;;;0.40;0.15;;;;;;;;;;4180502;28;20057;-34
2022/04/23 01:15:02;;;;;;;0.55;0.30;;;;;;;;;;4179977;28;20060;-34
2022/04/23 01:17:03;;;;;;;0.28;0.10;;;;;;;;;;4179771;28;20115;-34
2022/04/23 01:19:04;;;;;;;0.70;0.20;;;;;;;;;;4161771;28;20064;-34
2022/04/23 01:21:05;;;;;;;0.17;0.13;;;;;;;;;;4163878;28;20057;-34
2022/04/23 01:23:07;;;;;;;0.40;0.20;;;;;;;;;;4163818;28;20179;-33
2022/04/23 01:25:12;;;;;;;0.65;0.20;;;;;;;;;;4162644;28;20049;-34
2022/04/23 01:27:13;;;;;;;0.10;0.10;;;;;;;;;;4163881;28;20370;-33
2022/04/23 01:29:14;;;;;;;0.25;0.20;;;;;;;;;;4164023;28;20418;-33
2022/04/23 01:31:15;;;;;;;0.20;0.10;;;;;;;;;;4163787;28;20143;-33
2022/04/23 01:33:17;;;;;;;0.20;0.20;;;;;;;;;;4176316;28;20075;-33
2022/04/23 01:35:18;;;;;;;0.30;0.30;;;;;;;;;;4180035;28;20061;-33
2022/04/23 01:37:22;;;;;;;0.10;0.10;;;;;;;;;;4180088;28;20408;-34
2022/04/23 01:39:24;;;;;;;0.10;0.10;;;;;;;;;;4179910;28;20064;-33
2022/04/23 01:41:25;;;;;;;0.35;0.10;;;;;;;;;;4179957;28;20052;-33
2022/04/23 01:43:26;;;;;;;0.10;0.10;;;;;;;;;;4179882;28;20554;-33
2022/04/23 01:45:27;;;;;;;0.20;0.10;;;;;;;;;;4179889;28;20103;-33
2022/04/23 01:47:29;;;;;;;0.25;0.20;;;;;;;;;;4180062;28;20060;-34
2022/04/23 01:49:30;;;;;;;0.17;0.15;;;;;;;;;;4179807;28;20052;-33
2022/04/23 01:51:32;;;;;;;0.35;0.20;;;;;;;;;;4179886;28;20065;-33
2022/04/23 01:53:33;;;;;;;0.25;0.13;;;;;;;;;;4179802;28;20111;-33
2022/04/23 01:55:34;;;;;;;0.30;0.20;;;;;;;;;;4179901;28;20083;-33
2022/04/23 01:57:35;;;;;;;0.30;0.13;;;;;;;;;;4179649;28;20060;-33
2022/04/23 01:59:36;;;;;;;0.10;0.10;;;;;;;;;;4179942;28;20102;-33
2022/04/23 02:01:37;;;;;;;0.40;0.20;;;;;;;;;;4179531;28;20061;-33
2022/04/23 02:03:39;;;;;;;0.45;0.17;;;;;;;;;;4178889;28;20057;-33
2022/04/23 02:05:40;;;;;;;0.17;0.17;;;;;;;;;;4178459;28;20451;-33
2022/04/23 02:07:42;;;;;;;0.25;0.20;;;;;;;;;;4179799;28;20162;-33
2022/04/23 02:09:44;;;;;;;0.80;0.15;;;;;;;;;;4179561;28;20411;-34
2022/04/23 02:11:45;;;;;;;0.10;0.10;;;;;;;;;;4178634;28;20052;-33
2022/04/23 02:13:47;;;;;;;0.10;0.10;;;;;;;;;;4179355;28;20455;-33
2022/04/23 02:15:48;;;;;;;0.20;0.15;;;;;;;;;;4178161;28;20056;-33
2022/04/23 02:17:50;;;;;;;0.20;0.10;;;;;;;;;;4161397;28;20130;-34
2022/04/23 02:19:52;;;;;;;0.28;0.03;;;;;;;;;;4179701;28;20053;-33
2022/04/23 02:21:53;;;;;;;0.20;0.10;;;;;;;;;;4179667;28;20068;-33
2022/04/23 02:23:54;;;;;;;0.10;0.10;;;;;;;;;;4179280;28;20053;-33
2022/04/23 02:25:56;;;;;;;0.10;0.10;;;;;;;;;;4179630;28;20053;-33
2022/04/23 02:27:57;;;;;;;0.20;0.20;;;;;;;;;;4179292;28;20324;-33
2022/04/23 02:29:58;;;;;;;0.25;0.10;;;;;;;;;;4179345;28;20068;-33
2022/04/23 02:32:00;;;;;;;0.38;0.28;;;;;;;;;;4179322;28;20091;-33
2022/04/23 02:34:01;;;;;;;0.10;0.10;;;;;;;;;;4178718;28;20413;-34
2022/04/23 02:36:02;;;;;;;0.22;0.10;;;;;;;;;;4178021;28;20118;-33
2022/04/23 02:38:03;;;;;;;0.10;0.10;;;;;;;;;;4178011;28;20155;-34
2022/04/23 02:40:06;;;;;;;0.38;0.17;;;;;;;;;;4177938;28;20053;-34
2022/04/23 02:42:11;;;;;;;0.20;0.10;;;;;;;;;;4179076;28;20053;-33
2022/04/23 02:44:15;;;;;;;0.25;0.15;;;;;;;;;;4179065;28;20094;-33
2022/04/23 02:46:16;;;;;;;0.20;0.10;;;;;;;;;;4179043;28;20079;-33
2022/04/23 02:48:17;;;;;;;0.00;0.00;;;;;;;;;;4178646;28;20114;-33
2022/04/23 02:50:29;;;;;;;0.32;0.10;;;;;;;;;;4177814;28;20049;-33
2022/04/23 02:52:31;;;;;;;0.20;0.20;;;;;;;;;;4179130;28;20053;-33
2022/04/23 02:54:32;;;;;;;0.10;0.10;;;;;;;;;;4178977;28;20106;-33
2022/04/23 02:56:34;;;;;;;0.22;0.10;;;;;;;;;;4179022;28;20096;-33
2022/04/23 02:58:35;;;;;;;0.10;0.10;;;;;;;;;;4178863;28;20099;-33
2022/04/23 03:00:41;;;;;;;0.20;0.10;;;;;;;;;;4178721;28;20496;-33
2022/04/23 03:02:44;;;;;;;0.20;0.10;;;;;;;;;;4178447;28;20049;-33
2022/04/23 03:04:45;;;;;;;0.10;0.10;;;;;;;;;;4178943;28;20052;-33
2022/04/23 03:06:46;;;;;;;0.10;0.10;;;;;;;;;;4178930;28;20485;-33
2022/04/23 03:08:48;;;;;;;0.10;0.10;;;;;;;;;;4179141;28;20115;-33
2022/04/23 03:10:49;;;;;;;0.30;0.10;;;;;;;;;;4178982;28;20064;-33
2022/04/23 03:12:50;;;;;;;0.75;0.10;;;;;;;;;;4177473;28;20437;-33
2022/04/23 03:14:51;;;;;;;0.68;0.30;;;;;;;;;;4180915;28;20103;-34
2022/04/23 03:16:52;;;;;;;0.10;0.10;;;;;;;;;;4182338;28;20547;-33
2022/04/23 03:18:53;;;;;;;0.25;0.15;;;;;;;;;;4181725;28;20049;-33
2022/04/23 03:20:55;;;;;;;0.57;0.20;;;;;;;;;;4180930;28;20049;-33
2022/04/23 03:22:56;;;;;;;0.10;0.10;;;;;;;;;;4182036;28;20122;-34
2022/04/23 03:24:57;;;;;;;0.57;0.22;;;;;;;;;;4182408;28;20106;-33
2022/04/23 03:26:59;;;;;;;0.10;0.10;;;;;;;;;;4182635;28;20057;-33
2022/04/23 03:29:00;;;;;;;0.20;0.10;;;;;;;;;;4181963;28;20083;-33
2022/04/23 03:31:02;;;;;;;0.20;0.17;;;;;;;;;;4182078;28;20465;-33
2022/04/23 03:33:03;;;;;;;0.00;0.00;;;;;;;;;;4181782;28;20103;-33
2022/04/23 03:35:05;;;;;;;0.00;0.00;;;;;;;;;;4182013;28;20512;-33
2022/04/23 03:37:07;;;;;;;0.75;0.20;;;;;;;;;;4181849;28;20068;-33
2022/04/23 03:39:08;;;;;;;0.00;0.00;;;;;;;;;;4181727;28;20110;-33
2022/04/23 03:41:09;;;;;;;1.15;0.30;;;;;;;;;;4180882;28;20098;-33
2022/04/23 03:43:10;;;;;;;0.20;0.20;;;;;;;;;;4180222;28;20056;-33
2022/04/23 03:45:11;;;;;;;0.93;0.20;;;;;;;;;;4181974;28;20056;-33
2022/04/23 03:47:13;;;;;;;0.10;0.10;;;;;;;;;;4181727;28;20107;-33
2022/04/23 03:49:14;;;;;;;0.20;0.10;;;;;;;;;;4181518;28;20053;-33
2022/04/23 03:51:15;;;;;;;0.43;0.20;;;;;;;;;;4181621;28;20057;-33
2022/04/23 03:53:16;;;;;;;0.20;0.10;;;;;;;;;;4181881;28;20049;-33
2022/04/23 03:55:18;;;;;;;1.00;0.20;;;;;;;;;;4181385;28;20430;-33
2022/04/23 03:57:19;;;;;;;0.13;0.13;;;;;;;;;;4181877;28;20057;-33
2022/04/23 03:59:23;;;;;;;0.30;0.10;;;;;;;;;;4181345;28;20084;-33
2022/04/23 04:01:24;;;;;;;0.30;0.10;;;;;;;;;;4181459;28;20107;-33
2022/04/23 04:03:26;;;;;;;0.10;0.10;;;;;;;;;;4180963;28;20102;-33
2022/04/23 04:05:28;;;;;;;0.20;0.10;;;;;;;;;;4181474;28;20053;-33
2022/04/23 04:07:29;;;;;;;0.10;0.10;;;;;;;;;;4181323;28;20454;-34
2022/04/23 04:09:30;;;;;;;0.38;0.10;;;;;;;;;;4181600;28;20060;-33
2022/04/23 04:12:01;;;;;;;0.20;0.10;;;;;;;;;;4181373;28;20053;-33
2022/04/23 04:13:53;;;;;;;0.13;0.10;;;;;;;;;;4181246;28;20508;-33
2022/04/23 04:15:55;;;;;;;0.73;0.10;;;;;;;;;;4181362;28;20057;-33
2022/04/23 04:17:56;;;;;;;0.10;0.10;;;;;;;;;;4181308;28;20052;-33
2022/04/23 04:19:58;;;;;;;0.05;0.05;;;;;;;;;;4181249;28;20060;-33
2022/04/23 04:22:03;;;;;;;0.10;0.10;;;;;;;;;;4181162;28;20277;-33
2022/04/23 04:24:05;;;;;;;0.15;0.10;;;;;;;;;;4181106;28;20057;-33
2022/04/23 04:26:07;;;;;;;0.28;0.17;;;;;;;;;;4180730;28;20075;-33
2022/04/23 04:28:09;;;;;;;0.10;0.10;;;;;;;;;;4181181;28;20053;-33
2022/04/23 04:30:11;;;;;;;0.20;0.10;;;;;;;;;;4180039;28;20060;-33
2022/04/23 04:32:13;;;;;;;0.10;0.10;;;;;;;;;;4181061;28;20094;-33
2022/04/23 04:34:23;;;;;;;0.20;0.10;;;;;;;;;;4180522;28;20060;-33
2022/04/23 04:36:24;;;;;;;0.30;0.20;;;;;;;;;;4179810;28;20052;-33
2022/04/23 04:38:25;;;;;;;0.10;0.10;;;;;;;;;;4181141;28;20060;-33
2022/04/23 04:40:26;;;;;;;0.40;0.10;;;;;;;;;;4180959;28;20691;-33
2022/04/23 04:42:28;;;;;;;0.20;0.10;;;;;;;;;;4180781;28;20326;-33
2022/04/23 04:44:29;;;;;;;0.10;0.10;;;;;;;;;;4180938;28;20052;-33
2022/04/23 04:46:30;;;;;;;0.10;0.10;;;;;;;;;;4181110;28;20052;-34
2022/04/23 04:48:31;;;;;;;0.17;0.10;;;;;;;;;;4180324;28;20068;-33
2022/04/23 04:50:32;;;;;;;0.17;0.17;;;;;;;;;;4180766;28;20437;-33
2022/04/23 04:52:33;;;;;;;0.30;0.20;;;;;;;;;;4179549;28;20053;-33
2022/04/23 04:54:35;;;;;;;0.20;0.10;;;;;;;;;;4180597;28;20053;-33
2022/04/23 04:56:36;;;;;;;0.15;0.10;;;;;;;;;;4180774;28;20103;-33
2022/04/23 04:58:37;;;;;;;0.20;0.10;;;;;;;;;;4180569;28;20060;-33
2022/04/23 05:00:38;;;;;;;0.43;0.10;;;;;;;;;;4180678;28;20049;-33
2022/04/23 05:02:39;;;;;;;0.10;0.10;;;;;;;;;;4180162;28;20045;-33
2022/04/23 05:04:41;;;;;;;0.13;0.10;;;;;;;;;;4180708;28;20523;-33
2022/04/23 05:06:42;;;;;;;0.00;0.00;;;;;;;;;;4180850;28;20072;-33
2022/04/23 05:08:44;;;;;;;0.30;0.10;;;;;;;;;;4180903;28;20064;-33
2022/04/23 05:10:44;;;;;;;0.28;0.10;;;;;;;;;;4180362;28;20450;-33
2022/04/23 05:12:46;;;;;;;0.08;0.00;;;;;;;;;;4180330;28;20049;-34
2022/04/23 05:14:47;;;;;;;0.00;0.00;;;;;;;;;;4180605;28;20114;-33
2022/04/23 05:16:48;;;;;;;0.13;0.10;;;;;;;;;;4180397;28;20048;-33
2022/04/23 05:18:50;;;;;;;0.17;0.10;;;;;;;;;;4179880;28;20053;-33
2022/04/23 05:20:51;;;;;;;0.10;0.10;;;;;;;;;;4179354;28;20167;-33
2022/04/23 05:22:52;;;;;;;0.45;0.10;;;;;;;;;;4180029;28;20198;-33
2022/04/23 05:24:53;;;;;;;0.00;0.00;;;;;;;;;;4180422;28;20057;-33
2022/04/23 05:26:54;;;;;;;0.20;0.10;;;;;;;;;;4180286;28;20132;-33
2022/04/23 05:28:55;;;;;;;0.32;0.10;;;;;;;;;;4180125;28;20064;-33
2022/04/23 05:30:57;;;;;;;0.20;0.20;;;;;;;;;;4180307;28;20057;-34
2022/04/23 05:32:58;;;;;;;0.40;0.10;;;;;;;;;;4179649;28;20091;-33
2022/04/23 05:34:59;;;;;;;0.10;0.10;;;;;;;;;;4180033;28;20566;-33
2022/04/23 05:37:01;;;;;;;0.03;0.03;;;;;;;;;;4179709;28;20057;-33
2022/04/23 05:39:02;;;;;;;0.30;0.17;;;;;;;;;;4176683;28;20072;-33
2022/04/23 05:41:04;;;;;;;0.10;0.10;;;;;;;;;;4178078;28;20057;-33
2022/04/23 05:43:05;;;;;;;0.05;0.00;;;;;;;;;;4177890;28;20095;-33
2022/04/23 05:45:06;;;;;;;0.47;0.15;;;;;;;;;;4178168;28;20064;-33
2022/04/23 05:47:07;;;;;;;0.10;0.10;;;;;;;;;;4178078;28;20057;-33
2022/04/23 05:49:09;;;;;;;0.35;0.13;;;;;;;;;;4177343;28;20450;-34
2022/04/23 05:51:10;;;;;;;0.30;0.10;;;;;;;;;;4177878;28;20099;-33
2022/04/23 05:53:11;;;;;;;0.25;0.10;;;;;;;;;;4176709;28;20104;-33
2022/04/23 05:55:12;;;;;;;0.00;0.00;;;;;;;;;;4176264;28;20099;-33
2022/04/23 05:57:13;;;;;;;0.20;0.10;;;;;;;;;;4177823;28;20519;-34
2022/04/23 05:59:14;;;;;;;0.10;0.10;;;;;;;;;;4177626;28;20115;-33
2022/04/23 06:01:15;;;;;;;0.00;0.00;;;;;;;;;;4177614;28;20065;-33
2022/04/23 06:03:17;;;;;;;0.38;0.10;;;;;;;;;;4176839;28;20107;-33
2022/04/23 06:05:18;;;;;;;0.10;0.10;;;;;;;;;;4176592;28;20065;-34
2022/04/23 06:07:19;;;;;;;0.00;0.00;;;;;;;;;;4176591;28;20091;-33
2022/04/23 06:09:21;;;;;;;0.30;0.10;;;;;;;;;;4177432;28;20384;-33
2022/04/23 06:11:22;;;;;;;0.10;0.00;;;;;;;;;;4177919;28;20385;-33
2022/04/23 06:13:23;;;;;;;0.00;0.00;;;;;;;;;;4177565;28;20099;-33
2022/04/23 06:15:25;;;;;;;0.28;0.20;;;;;;;;;;4177076;28;20098;-34
2022/04/23 06:17:27;;;;;;;0.13;0.10;;;;;;;;;;4177703;28;20111;-33
2022/04/23 06:19:30;;;;;;;0.35;0.15;;;;;;;;;;4177017;28;20060;-33
2022/04/23 06:21:31;;;;;;;0.00;0.00;;;;;;;;;;4177551;28;20476;-33
2022/04/23 06:23:33;;;;;;;0.00;0.00;;;;;;;;;;4177145;28;20094;-33
2022/04/23 06:25:34;;;;;;;0.28;0.10;;;;;;;;;;4177593;28;20065;-34
2022/04/23 06:27:38;;;;;;;1.08;0.65;;;;;;;;;;4171978;28;20386;-33
2022/04/23 06:29:39;;;;;;;0.10;0.10;;;;;;;;;;4162933;28;20049;-33
2022/04/23 06:31:41;;;;;;;0.13;0.08;;;;;;;;;;4163005;28;20057;-33
2022/04/23 06:33:42;;;;;;;0.15;0.10;;;;;;;;;;4162151;28;20360;-33
2022/04/23 06:35:43;;;;;;;0.20;0.10;;;;;;;;;;4162755;28;20140;-33
2022/04/23 06:37:45;;;;;;;0.00;0.00;;;;;;;;;;4162671;28;20508;-33
2022/04/23 06:39:46;;;;;;;0.00;0.00;;;;;;;;;;4162639;28;20103;-34
2022/04/23 06:41:47;;;;;;;0.32;0.10;;;;;;;;;;4163061;28;20072;-33
2022/04/23 06:43:49;;;;;;;0.20;0.10;;;;;;;;;;4162508;28;20378;-38
2022/04/23 06:45:50;;;;;;;0.05;0.05;;;;;;;;;;4162928;28;20054;-33
2022/04/23 06:48:02;;;;;;;0.22;0.20;;;;;;;;;;4162194;28;20068;-33
2022/04/23 06:50:06;;;;;;;0.17;0.00;;;;;;;;;;4162328;28;20057;-33
2022/04/23 06:52:07;;;;;;;0.10;0.00;;;;;;;;;;4162715;28;20057;-33
2022/04/23 06:54:08;;;;;;;0.00;0.00;;;;;;;;;;4161093;28;20461;-33
2022/04/23 06:56:10;;;;;;;0.15;0.10;;;;;;;;;;4162521;28;20049;-33
2022/04/23 06:58:11;;;;;;;0.00;0.00;;;;;;;;;;4162357;28;20509;-33
2022/04/23 07:00:13;;;;;;;0.25;0.10;;;;;;;;;;4176547;28;20111;-34
2022/04/23 07:02:14;;;;;;;0.20;0.10;;;;;;;;;;4179035;28;20064;-34
2022/04/23 07:04:15;;;;;;;0.10;0.10;;;;;;;;;;4178439;28;20060;-34
2022/04/23 07:06:16;;;;;;;0.47;0.10;;;;;;;;;;4179045;28;20057;-34
2022/04/23 07:08:17;;;;;;;1.65;0.10;;;;;;;;;;4177740;28;20060;-34
2022/04/23 07:10:19;;;;;;;0.85;0.20;;;;;;;;;;4179057;28;20049;-34
2022/04/23 07:12:20;;;;;;;1.50;0.10;;;;;;;;;;4178854;28;20378;-34
2022/04/23 07:14:23;;;;;;;0.20;0.20;;;;;;;;;;4179070;28;20056;-34
2022/04/23 07:16:24;;;;;;;0.30;0.10;;;;;;;;;;4178829;28;20523;-34
2022/04/23 07:18:25;;;;;;;0.40;0.10;;;;;;;;;;4178368;28;20484;-34
2022/04/23 07:20:26;;;;;;;0.30;0.20;;;;;;;;;;4179001;28;20065;-34
2022/04/23 07:22:27;;;;;;;0.38;0.20;;;;;;;;;;4177499;28;20394;-35
2022/04/23 07:24:28;;;;;;;0.10;0.10;;;;;;;;;;4178674;28;20075;-34
2022/04/23 07:26:31;;;;;;;0.10;0.10;;;;;;;;;;4178783;28;20522;-34
2022/04/23 07:28:32;;;;;;;0.22;0.10;;;;;;;;;;4178968;28;20057;-34
2022/04/23 07:30:35;;;;;;;0.20;0.10;;;;;;;;;;4179023;28;20057;-34
2022/04/23 07:32:36;;;;;;;1.90;0.05;;;;;;;;;;4177158;28;20049;-34
2022/04/23 07:39:17;;;;;;;0.43;0.10;;;;;;;;;;4178885;28;20053;-34
2022/04/23 07:41:18;;;;;;;1.85;0.28;;;;;;;;;;4178737;28;20451;-34
2022/04/23 07:43:20;;;;;;;1.00;0.20;;;;;;;;;;4178464;28;20119;-34
2022/04/23 07:45:21;;;;;;;0.25;0.10;;;;;;;;;;4177426;28;20060;-34
2022/04/23 07:47:22;;;;;;;0.50;0.10;;;;;;;;;;4177464;28;20361;-34
2022/04/23 07:49:23;;;;;;;1.50;0.20;;;;;;;;;;4178048;28;20404;-35
2022/04/23 07:51:28;;;;;;;1.17;0.45;;;;;;;;;;4178650;28;20069;-35
2022/04/23 07:53:29;;;;;;;2.00;0.25;;;;;;;;;;4178617;28;20132;-34
2022/04/23 07:55:36;;;;;;;1.05;0.40;;;;;;;;;;4178525;28;20049;-35
2022/04/23 07:57:37;;;;;;;0.63;0.22;;;;;;;;;;4178365;28;20451;-34
2022/04/23 07:59:40;;;;;;;3.20;0.30;;;;;;;;;;4178409;28;20115;-35
2022/04/23 08:01:41;;;;;;;3.55;0.60;;;;;;;;;;4180045;28;20060;-34
2022/04/23 08:03:42;;;;;;;1.13;0.20;;;;;;;;;;4180948;28;20048;-34
2022/04/23 08:05:43;;;;;;;1.13;0.17;;;;;;;;;;4181764;28;20083;-34
2022/04/23 08:07:45;;;;;;;1.58;0.20;;;;;;;;;;4181335;28;20135;-34
2022/04/23 08:09:46;;;;;;;0.35;0.20;;;;;;;;;;4180270;28;20049;-34
2022/04/23 08:11:47;;;;;;;1.13;0.10;;;;;;;;;;4181549;28;20052;-34
2022/04/23 08:13:50;;;;;;;3.50;0.45;;;;;;;;;;4181406;28;20049;-35
2022/04/23 08:15:51;;;;;;;0.85;0.20;;;;;;;;;;4181462;28;20171;-34
2022/04/23 08:17:53;;;;;;;1.40;0.20;;;;;;;;;;4180937;28;20061;-35
2022/04/23 08:19:54;;;;;;;1.90;0.30;;;;;;;;;;4181390;28;20542;-34
2022/04/23 08:21:56;;;;;;;1.73;0.28;;;;;;;;;;4181425;28;20053;-34
2022/04/23 08:23:57;;;;;;;2.35;0.40;;;;;;;;;;4179799;28;20187;-35
2022/04/23 08:25:58;;;;;;;0.40;0.10;;;;;;;;;;4181514;28;20060;-34
2022/04/23 08:30:35;;;;;;;0.80;0.15;;;;;;;;;;4181128;28;20106;-35
2022/04/23 08:32:36;;;;;;;1.52;0.25;;;;;;;;;;4180731;28;20045;-34
2022/04/23 08:34:37;;;;;;;3.75;0.50;;;;;;;;;;4179736;28;20114;-34
2022/04/23 08:36:39;;;;;;;1.65;0.20;;;;;;;;;;4181231;28;20064;-35
2022/04/23 08:38:40;;;;;;;0.73;0.20;;;;;;;;;;4180852;28;20056;-34
2022/04/23 08:40:45;;;;;;;1.48;0.40;;;;;;;;;;4181282;28;20061;-35
2022/04/23 08:42:47;;;;;;;2.90;0.40;;;;;;;;;;4180791;28;20488;-34
2022/04/23 08:44:48;;;;;;;1.90;0.40;;;;;;;;;;4181094;28;20056;-34
2022/04/23 08:46:51;;;;;;;2.53;0.35;;;;;;;;;;4180057;28;20049;-35
2022/04/23 08:48:59;;;;;;;1.02;0.32;;;;;;;;;;4162510;28;20057;-34
2022/04/23 08:51:01;;;;;;;1.35;0.20;;;;;;;;;;4179637;28;20106;-35
2022/04/23 08:53:17;;;;;;;1.20;0.30;;;;;;;;;;4180625;28;20433;-34
2022/04/23 08:55:19;;;;;;;2.60;0.95;;;;;;;;;;4180874;28;20052;-34
2022/04/23 08:57:20;;;;;;;1.83;0.20;;;;;;;;;;4181036;28;20106;-35
2022/04/23 08:59:22;;;;;;;2.60;0.47;;;;;;;;;;4180894;28;20057;-34
2022/04/23 09:01:24;;;;;;;2.88;0.32;;;;;;;;;;4180548;28;20067;-34
2022/04/23 09:03:25;;;;;;;2.42;0.40;;;;;;;;;;4180323;28;20103;-34
2022/04/23 09:05:28;;;;;;;3.03;0.50;;;;;;;;;;4179286;28;20476;-34
2022/04/23 09:07:30;;;;;;;1.58;0.50;;;;;;;;;;4180536;28;20151;-34
2022/04/23 09:09:31;;;;;;;3.80;0.50;;;;;;;;;;4180729;28;20118;-34
2022/04/23 09:11:35;;;;;;;1.85;0.35;;;;;;;;;;4180622;28;20065;-34
2022/04/23 09:13:36;;;;;;;0.60;0.30;;;;;;;;;;4162722;28;20397;-34
2022/04/23 09:24:56;;;;;;;3.97;0.40;;;;;;;;;;4180425;28;20377;-35
2022/04/23 09:27:03;;;;;;;1.23;0.52;;;;;;;;;;4179120;28;20064;-34
2022/04/23 09:29:20;;;;;;;2.00;0.47;;;;;;;;;;4180134;28;20190;-34
2022/04/23 09:31:23;;;;;;;3.95;0.50;;;;;;;;;;4180195;28;20083;-34
2022/04/23 09:33:42;;;;;;;1.88;0.40;;;;;;;;;;4179994;28;20099;-34
2022/04/23 09:35:55;;;;;;;1.45;0.55;;;;;;;;;;4180200;28;20106;-34
2022/04/23 09:38:11;;;;;;;1.90;0.45;;;;;;;;;;4179885;28;20064;-34
2022/04/23 09:40:23;;;;;;;0.88;0.30;;;;;;;;;;4180300;28;20060;-34
2022/04/23 09:42:24;;;;;;;2.58;0.68;;;;;;;;;;4179982;28;20099;-34
2022/04/23 09:44:29;;;;;;;2.88;0.80;;;;;;;;;;4179924;28;20049;-34
2022/04/23 09:46:42;;;;;;;1.25;0.40;;;;;;;;;;4180092;28;20099;-34
2022/04/23 09:48:44;;;;;;;3.40;0.93;;;;;;;;;;4179680;28;20061;-35
2022/04/23 09:50:47;;;;;;;2.80;0.43;;;;;;;;;;4178866;28;20053;-34
2022/04/23 09:52:51;;;;;;;3.88;0.50;;;;;;;;;;4180120;28;20186;-34
2022/04/23 09:54:53;;;;;;;2.55;0.65;;;;;;;;;;4179814;28;20144;-34
2022/04/23 09:56:55;;;;;;;3.25;0.40;;;;;;;;;;4180064;28;20110;-34
2022/04/23 09:58:56;;;;;;;2.22;0.30;;;;;;;;;;4178264;28;20435;-34
2022/04/23 10:00:58;;;;;;;2.05;0.52;;;;;;;;;;4179599;28;20048;-34
2022/04/23 10:03:00;;;;;;;3.05;0.50;;;;;;;;;;4179112;28;20045;-34
2022/04/23 10:05:03;;;;;;;3.83;0.90;;;;;;;;;;4179644;28;20057;-34
2022/04/23 10:07:05;;;;;;;1.95;0.40;;;;;;;;;;4178286;28;20507;-34
2022/04/23 10:09:07;;;;;;;1.70;0.50;;;;;;;;;;4179673;28;20056;-34
2022/04/23 10:11:24;;;;;;;2.00;0.57;;;;;;;;;;4179666;28;20114;-35
2022/04/23 10:13:29;;;;;;;3.67;0.60;;;;;;;;;;4179438;28;20385;-35
2022/04/23 10:15:31;;;;;;;1.67;0.40;;;;;;;;;;4179375;28;20056;-36
2022/04/23 10:17:35;;;;;;;3.70;0.70;;;;;;;;;;4179174;28;20575;-35
2022/04/23 10:19:36;;;;;;;7.50;0.57;;;;;;;;;;4179329;28;20053;-35
2022/04/23 10:21:45;;;;;;;3.50;0.77;;;;;;;;;;4179331;28;20057;-35
2022/04/23 10:23:54;;;;;;;1.58;0.55;;;;;;;;;;4177733;28;20053;-35
2022/04/23 10:26:21;;;;;;;1.10;0.40;;;;;;;;;;4179324;28;20381;-35
2022/04/23 10:28:22;;;;;;;1.58;0.40;;;;;;;;;;4179357;28;20122;-35
2022/04/23 10:30:27;;;;;;;1.52;0.63;;;;;;;;;;4179499;28;20098;-35
2022/04/23 10:32:41;;;;;;;3.42;0.38;;;;;;;;;;4179234;28;20049;-35
2022/04/23 10:34:43;;;;;;;4.60;0.50;;;;;;;;;;4179329;28;20060;-35
2022/04/23 10:36:46;;;;;;;2.45;0.30;;;;;;;;;;4179336;28;20468;-35
2022/04/23 10:38:52;;;;;;;1.88;0.50;;;;;;;;;;4179354;28;20060;-35
2022/04/23 10:40:54;;;;;;;3.70;0.65;;;;;;;;;;4179234;28;20103;-35
2022/04/23 10:43:04;;;;;;;2.05;0.50;;;;;;;;;;4177800;28;20463;-35
2022/04/23 10:45:07;;;;;;;1.40;0.30;;;;;;;;;;4177986;28;20053;-35
2022/04/23 10:47:30;;;;;;;2.15;0.80;;;;;;;;;;4179205;28;20385;-35
2022/04/23 10:49:31;;;;;;;1.60;0.30;;;;;;;;;;4179066;28;20396;-35
2022/04/23 10:51:46;;;;;;;1.00;0.40;;;;;;;;;;4179036;28;20076;-35
2022/04/23 10:53:51;;;;;;;2.63;0.40;;;;;;;;;;4178854;28;20053;-35
2022/04/23 10:56:14;;;;;;;2.45;0.50;;;;;;;;;;4178936;28;20561;-35
2022/04/23 10:58:20;;;;;;;1.98;0.47;;;;;;;;;;4178922;28;20099;-35
2022/04/23 11:00:30;;;;;;;1.65;0.50;;;;;;;;;;4177556;28;20126;-35
2022/04/23 11:02:32;;;;;;;2.38;0.38;;;;;;;;;;4177534;28;20118;-35
2022/04/23 11:04:34;;;;;;;2.00;0.43;;;;;;;;;;4177621;28;20063;-35
2022/04/23 11:12:34;;;;;;;1.20;0.40;;;;;;;;;;4179033;28;20060;-35
2022/04/23 11:14:39;;;;;;;2.50;0.40;;;;;;;;;;4180710;28;20053;-35
2022/04/23 11:16:53;;;;;;;3.00;0.55;;;;;;;;;;4177694;28;20118;-35
2022/04/23 11:18:58;;;;;;;2.22;0.30;;;;;;;;;;4178636;28;20064;-35
2022/04/23 11:21:09;;;;;;;3.38;0.60;;;;;;;;;;4178905;28;20049;-35
2022/04/23 11:23:10;;;;;;;1.23;0.35;;;;;;;;;;4177399;28;20049;-35
2022/04/23 11:25:14;;;;;;;1.15;0.43;;;;;;;;;;4178846;28;20098;-35
2022/04/23 11:27:29;;;;;;;1.27;0.50;;;;;;;;;;4178729;28;20408;-35
2022/04/23 11:29:30;;;;;;;3.28;0.40;;;;;;;;;;4178974;28;20049;-35
2022/04/23 11:31:31;;;;;;;1.90;0.30;;;;;;;;;;4178778;28;20053;-35
2022/04/23 11:33:32;;;;;;;1.73;0.38;;;;;;;;;;4178220;28;20118;-35
2022/04/23 11:35:36;;;;;;;1.05;0.30;;;;;;;;;;4177480;28;20099;-35
2022/04/23 11:37:38;;;;;;;1.35;0.30;;;;;;;;;;4181881;28;20057;-35
2022/04/23 11:39:39;;;;;;;0.50;0.30;;;;;;;;;;4181750;28;20072;-35
2022/04/23 11:41:48;;;;;;;3.10;0.47;;;;;;;;;;4181806;28;20053;-35
2022/04/23 11:43:50;;;;;;;1.88;0.50;;;;;;;;;;4182036;28;20053;-35
2022/04/23 11:45:57;;;;;;;1.73;0.40;;;;;;;;;;4181813;28;20447;-35
2022/04/23 11:47:58;;;;;;;0.82;0.40;;;;;;;;;;4181622;28;20099;-35
2022/04/23 11:50:13;;;;;;;0.93;0.22;;;;;;;;;;4180617;28;20143;-35
2022/04/23 11:52:14;;;;;;;1.33;0.50;;;;;;;;;;4181835;28;20064;-35
2022/04/23 11:54:15;;;;;;;1.38;0.30;;;;;;;;;;4181690;28;20049;-35
2022/04/23 11:56:20;;;;;;;1.67;0.40;;;;;;;;;;4180591;28;20057;-35
2022/04/23 11:58:22;;;;;;;1.83;0.45;;;;;;;;;;4181498;28;20057;-35
2022/04/23 12:00:24;;;;;;;1.23;0.30;;;;;;;;;;4181591;28;20060;-35
2022/04/23 12:02:27;;;;;;;1.27;0.40;;;;;;;;;;4180256;28;20454;-35
2022/04/23 12:04:40;;;;;;;1.65;0.73;;;;;;;;;;4181203;28;20053;-35
2022/04/23 12:06:45;;;;;;;2.42;0.93;;;;;;;;;;4181529;28;20393;-34
2022/04/23 12:08:46;;;;;;;1.42;0.40;;;;;;;;;;4181700;28;20107;-35
2022/04/23 12:10:47;;;;;;;3.45;0.50;;;;;;;;;;4181416;28;20106;-35
2022/04/23 12:12:50;;;;;;;1.85;0.30;;;;;;;;;;4181336;28;20049;-35
2022/04/23 12:15:06;;;;;;;0.95;0.40;;;;;;;;;;4181541;28;20056;-35
2022/04/23 12:17:07;;;;;;;1.17;0.30;;;;;;;;;;4181471;28;20407;-35
2022/04/23 12:19:10;;;;;;;0.77;0.20;;;;;;;;;;4180872;28;20053;-35
2022/04/23 12:21:11;;;;;;;3.00;0.40;;;;;;;;;;4181440;28;20424;-35
2022/04/23 12:23:12;;;;;;;2.60;0.40;;;;;;;;;;4181162;28;20467;-35
2022/04/23 12:25:18;;;;;;;3.97;1.23;;;;;;;;;;4180014;28;20057;-35
2022/04/23 12:27:19;;;;;;;2.10;0.43;;;;;;;;;;4181575;28;20052;-35
2022/04/23 12:41:19;;;;;;;1.55;0.50;;;;;;;;;;4181046;28;20053;-35
2022/04/23 12:43:25;;;;;;;1.05;0.40;;;;;;;;;;4181329;28;20064;-35
2022/04/23 12:45:26;;;;;;;2.45;0.40;;;;;;;;;;4180869;28;20100;-35
2022/04/23 12:47:34;;;;;;;0.65;0.25;;;;;;;;;;4180372;28;20330;-35
2022/04/23 12:49:49;;;;;;;1.85;0.40;;;;;;;;;;4180842;28;20053;-35
2022/04/23 12:51:52;;;;;;;0.85;0.30;;;;;;;;;;4180868;28;20098;-35